Time;durP1;ratioP1;P1;durP2;ratioP2;P2;SDS_P1;SDS_P2;PMS_P1;PMS_P2;Temp;Humidity;BMP_temperature;BMP_pressure;BME280_temperature;BME280_humidity;BME280_pressure;Samples;Min_cycle;Max_cycle;Signal;HPM_P1;HPM_P2
2023/01/03 00:02:16;;;;;;;16.98;7.32;;;11.60;79.20;;;10.79;61.72;101470.63;5033920;28;20153;-73
2023/01/03 00:04:43;;;;;;;15.70;7.22;;;11.60;79.20;;;10.76;61.77;101468.31;5015271;28;20042;-73
2023/01/03 00:07:10;;;;;;;11.88;6.82;;;11.60;79.00;;;10.77;61.73;101477.16;5029297;28;20049;-73
2023/01/03 00:09:37;;;;;;;14.05;7.57;;;11.60;79.10;;;10.76;61.57;101472.84;5030335;28;20072;-73
2023/01/03 00:12:23;;;;;;;15.68;6.88;;;11.60;78.80;;;10.75;61.50;101474.69;5029595;28;20049;-73
2023/01/03 00:14:52;;;;;;;10.55;6.03;;;11.60;78.80;;;10.62;61.71;101479.84;5018749;28;20065;-73
2023/01/03 00:17:19;;;;;;;12.77;6.18;;;11.50;78.90;;;10.67;61.57;101479.28;5035662;28;20045;-73
2023/01/03 00:19:47;;;;;;;12.90;5.85;;;11.50;78.80;;;10.67;61.44;101488.13;5035706;28;20050;-73
2023/01/03 00:22:16;;;;;;;10.43;5.43;;;11.50;78.70;;;10.66;61.39;101486.47;5038435;28;20064;-73
2023/01/03 00:24:44;;;;;;;11.98;5.72;;;11.50;78.60;;;10.66;61.38;101482.97;5012355;28;20049;-73
2023/01/03 00:27:11;;;;;;;12.85;5.07;;;11.50;78.50;;;10.65;61.09;101479.47;5024551;28;20048;-73
2023/01/03 00:29:38;;;;;;;13.10;5.13;;;11.40;78.40;;;10.63;61.12;101480.66;5028570;28;20049;-72
2023/01/03 00:32:07;;;;;;;10.88;5.10;;;11.40;78.20;;;10.62;61.04;101479.03;5021206;28;20459;-73
2023/01/03 00:34:35;;;;;;;7.85;4.68;;;11.40;78.20;;;10.58;61.13;101486.56;5012713;28;20061;-73
2023/01/03 00:37:02;;;;;;;11.48;5.20;;;11.40;78.40;;;10.58;61.04;101487.38;5028581;28;20041;-73
2023/01/03 00:39:29;;;;;;;10.55;4.85;;;11.40;78.30;;;10.58;60.79;101482.06;5047039;28;20040;-73
2023/01/03 00:41:57;;;;;;;9.65;5.35;;;11.40;78.00;;;10.57;60.72;101491.06;5012200;28;20049;-73
2023/01/03 00:44:24;;;;;;;15.10;4.13;;;11.40;78.00;;;10.56;60.85;101485.94;5025299;28;20053;-73
2023/01/03 00:46:52;;;;;;;8.60;4.47;;;11.40;78.00;;;10.53;60.57;101488.97;5023915;28;20042;-73
2023/01/03 00:49:20;;;;;;;9.73;4.53;;;11.40;77.80;;;10.50;60.87;101497.34;5046910;28;20045;-72
2023/01/03 00:51:48;;;;;;;9.65;4.53;;;11.40;78.00;;;10.45;60.85;101499.75;5015620;28;20054;-73
2023/01/03 00:54:15;;;;;;;10.23;4.57;;;11.30;78.00;;;10.41;60.96;101504.63;5011397;28;20053;-72
2023/01/03 00:56:45;;;;;;;9.13;4.80;;;11.30;78.10;;;10.42;61.04;101500.94;5027999;28;20048;-73
2023/01/03 00:59:13;;;;;;;12.02;4.57;;;11.30;78.30;;;10.44;60.93;101511.41;5025030;28;20053;-73
2023/01/03 01:01:43;;;;;;;9.63;4.70;;;11.30;78.20;;;10.44;60.92;101525.59;5023226;28;20380;-73
2023/01/03 01:04:15;;;;;;;8.95;4.40;;;11.20;78.30;;;10.42;61.17;101518.78;5023840;28;20045;-72
2023/01/03 01:06:46;;;;;;;13.73;4.55;;;11.20;78.60;;;10.39;61.38;101533.28;5021715;28;20053;-73
2023/01/03 01:09:17;;;;;;;12.38;4.38;;;11.20;78.80;;;10.39;61.21;101529.78;5023824;28;20048;-73
2023/01/03 01:11:44;;;;;;;10.18;4.25;;;11.20;78.90;;;10.39;61.53;101525.28;5019644;28;20048;-73
2023/01/03 01:14:21;;;;;;;11.10;4.45;;;11.10;79.10;;;10.40;61.37;101526.97;5018451;28;20507;-73
2023/01/03 01:16:51;;;;;;;8.90;4.50;;;11.20;79.00;;;10.35;61.48;101526.69;5030636;28;20126;-73
2023/01/03 01:19:20;;;;;;;12.32;4.95;;;11.10;79.00;;;10.35;61.61;101532.03;5026443;28;20049;-73
2023/01/03 01:21:49;;;;;;;13.32;4.50;;;11.20;79.00;;;10.37;61.40;101540.66;5027337;28;20041;-73
2023/01/03 01:24:16;;;;;;;11.63;5.35;;;11.20;78.90;;;10.34;61.53;101542.84;5033967;28;20041;-73
2023/01/03 01:26:43;;;;;;;10.93;4.80;;;11.10;78.90;;;10.35;61.54;101537.34;5037954;28;20048;-73
2023/01/03 01:29:12;;;;;;;8.88;4.28;;;11.20;78.90;;;10.34;61.51;101543.69;5016956;28;20053;-73
2023/01/03 01:31:41;;;;;;;9.18;4.68;;;11.10;79.00;;;10.34;61.51;101541.00;5021415;28;20381;-73
2023/01/03 01:34:09;;;;;;;11.73;5.07;;;11.10;79.10;;;10.35;61.60;101537.34;5019857;28;20054;-73
2023/01/03 01:36:40;;;;;;;10.02;4.63;;;11.10;79.20;;;10.37;61.42;101545.16;5035845;28;20041;-72
2023/01/03 01:39:13;;;;;;;14.45;4.75;;;11.10;79.00;;;10.36;61.34;101546.19;5022213;28;20045;-72
2023/01/03 01:44:51;;;;;;;7.82;4.63;;;11.10;79.00;;;10.34;61.36;101548.19;5011530;28;20559;-72
2023/01/03 01:47:28;;;;;;;10.23;4.55;;;11.10;78.90;;;10.35;61.24;101547.19;5020488;28;20053;-73
2023/01/03 01:50:03;;;;;;;9.50;5.20;;;11.10;78.80;;;10.33;60.83;101563.34;5022624;28;20042;-73
2023/01/03 01:52:32;;;;;;;10.27;4.65;;;11.10;78.60;;;10.31;61.13;101558.22;5030315;28;20041;-73
2023/01/03 01:55:04;;;;;;;9.68;5.53;;;11.10;78.70;;;10.34;61.12;101558.84;5026704;28;20044;-73
2023/01/03 01:57:32;;;;;;;;;;;11.10;78.70;;;10.31;61.26;101560.88;5019185;28;20041;-73
2023/01/03 02:00:00;;;;;;;10.55;5.20;;;11.10;78.80;;;10.32;61.19;101573.19;5020212;28;19940;-72
2023/01/03 02:02:27;;;;;;;12.52;5.20;;;11.10;78.80;;;10.32;61.28;101578.53;5013838;28;20045;-72
2023/01/03 02:04:56;;;;;;;10.05;4.40;;;11.10;79.00;;;10.32;61.24;101578.53;5009870;28;20415;-72
2023/01/03 02:07:24;;;;;;;10.55;4.60;;;11.10;78.90;;;10.29;61.44;101578.06;5022267;28;20045;-72
2023/01/03 02:09:56;;;;;;;14.00;5.68;;;11.10;79.10;;;10.31;61.51;101571.56;5034127;28;20052;-73
2023/01/03 02:15:38;;;;;;;13.40;5.53;;;11.10;79.20;;;10.32;61.53;101578.53;5021646;28;20073;-72
2023/01/03 02:18:23;;;;;;;10.02;4.90;;;11.10;79.20;;;10.36;61.51;101588.84;5022588;28;20041;-73
2023/01/03 02:21:31;;;;;;;15.88;5.30;;;11.10;79.20;;;10.37;61.87;101590.50;5020691;28;20054;-73
2023/01/03 02:24:48;;;;;;;8.65;4.78;;;11.10;79.20;;;10.36;61.79;101589.66;5017961;28;20057;-72
2023/01/03 02:28:04;;;;;;;11.13;5.45;;;11.10;79.30;;;10.32;61.90;101607.88;5009607;28;20076;-73
2023/01/03 02:30:39;;;;;;;10.93;5.65;;;11.10;79.50;;;10.34;61.82;101597.00;4994238;28;20062;-73
2023/01/03 02:33:24;;;;;;;13.02;5.78;;;11.10;79.40;;;10.36;61.92;101604.84;5014145;28;20484;-74
2023/01/03 02:36:03;;;;;;;10.38;5.35;;;11.10;79.30;;;10.37;61.84;101609.16;5013927;28;20049;-72
2023/01/03 02:38:47;;;;;;;8.90;5.60;;;11.10;79.50;;;10.35;62.09;101608.53;5037959;28;20049;-73
2023/01/03 02:41:25;;;;;;;11.85;5.88;;;11.10;79.70;;;10.36;62.23;101607.50;5034120;28;20507;-72
2023/01/03 02:43:59;;;;;;;9.05;5.75;;;11.10;79.80;;;10.34;62.22;101597.00;5016816;28;20048;-73
2023/01/03 02:46:33;;;;;;;13.82;6.25;;;11.10;79.70;;;10.32;62.31;101599.03;5016970;28;20054;-73
2023/01/03 02:49:08;;;;;;;13.85;7.05;;;11.10;80.00;;;10.25;62.52;101604.28;5061518;23;20083;-75
2023/01/03 02:51:39;;;;;;;15.00;7.78;;;11.10;80.00;;;10.29;62.39;101602.88;4999626;28;20049;-75
2023/01/03 02:54:10;;;;;;;16.35;7.50;;;11.10;79.90;;;10.29;62.23;101600.22;5006644;28;20056;-76
2023/01/03 02:56:40;;;;;;;;;;;11.10;79.80;;;10.27;62.36;101612.91;5014057;28;20495;-76
2023/01/03 02:59:13;;;;;;;15.38;7.38;;;11.10;80.00;;;10.29;62.75;101608.22;5007458;28;19928;-76
2023/01/03 03:01:44;;;;;;;14.73;8.02;;;11.10;80.10;;;10.30;62.64;101607.22;5006329;28;20049;-76
2023/01/03 03:04:13;;;;;;;14.73;8.20;;;11.10;80.20;;;10.34;62.28;101609.50;5009740;28;20057;-75
2023/01/03 03:06:47;;;;;;;12.90;8.07;;;11.10;80.10;;;10.35;62.70;101611.19;5008901;28;20054;-75
2023/01/03 03:09:14;;;;;;;15.45;8.63;;;11.10;80.30;;;10.37;62.62;101617.16;5008137;28;20085;-75
2023/01/03 03:14:35;;;;;;;14.77;8.45;;;11.20;80.10;;;10.37;62.48;101610.00;5004605;28;20051;-75
2023/01/03 03:17:11;;;;;;;20.90;8.48;;;11.10;80.10;;;10.37;62.61;101603.81;5013050;28;20042;-75
2023/01/03 03:25:23;;;;;;;18.20;9.10;;;11.10;80.20;;;10.36;62.59;101623.50;5013092;28;20049;-76
2023/01/03 03:30:44;;;;;;;16.38;9.00;;;11.20;80.00;;;10.35;62.53;101605.88;5028763;28;20037;-76
2023/01/03 03:33:17;;;;;;;14.52;9.20;;;11.10;80.00;;;10.35;62.61;101605.88;5012820;28;20053;-76
2023/01/03 03:35:49;;;;;;;16.23;8.70;;;11.10;80.00;;;10.36;62.49;101618.19;5010362;28;20046;-75
2023/01/03 03:38:25;;;;;;;12.88;8.32;;;11.20;80.10;;;10.34;62.58;101612.19;5027561;28;20049;-75
2023/01/03 03:46:45;;;;;;;17.92;8.25;;;11.10;80.40;;;10.27;62.70;101610.25;5028625;28;20053;-75
2023/01/03 03:52:07;;;;;;;15.20;7.65;;;11.00;80.20;;;10.25;62.52;101611.44;5010758;28;20045;-75
2023/01/03 03:54:38;;;;;;;17.80;7.90;;;11.00;80.10;;;10.24;62.57;101609.78;5011083;28;20060;-76
2023/01/03 03:57:12;;;;;;;12.95;8.13;;;11.00;80.00;;;10.23;62.38;101616.09;5018027;28;20048;-76
2023/01/03 03:59:43;;;;;;;14.02;7.88;;;11.00;80.00;;;10.17;62.33;101622.97;5002482;28;20049;-76
2023/01/03 04:02:12;;;;;;;13.85;7.63;;;11.00;79.70;;;10.18;62.27;101619.28;5003970;28;20056;-75
2023/01/03 04:04:47;;;;;;;13.77;7.38;;;11.00;79.80;;;10.16;62.18;101621.31;5011264;28;20041;-75
2023/01/03 04:07:14;;;;;;;12.35;6.93;;;11.00;80.00;;;10.18;62.24;101621.13;5014039;28;20038;-76
2023/01/03 04:09:41;;;;;;;14.45;6.05;;;10.90;80.10;;;10.15;62.58;101622.34;5014184;28;20046;-75
2023/01/03 04:12:08;;;;;;;12.77;5.85;;;10.90;80.20;;;10.13;62.35;101621.66;5027538;28;20053;-75
2023/01/03 04:14:35;;;;;;;12.38;5.82;;;11.10;80.40;;;10.11;62.43;101620.22;5013036;28;20056;-75
2023/01/03 04:17:03;;;;;;;13.13;5.78;;;10.90;80.20;;;10.08;62.45;101626.72;5012215;28;20049;-75
2023/01/03 04:19:30;;;;;;;12.23;6.18;;;10.90;80.20;;;10.07;62.29;101622.41;5011648;28;20812;-75
2023/01/03 04:21:58;;;;;;;13.55;5.93;;;10.90;80.00;;;10.06;62.01;101626.91;5003707;28;20057;-75
2023/01/03 04:24:25;;;;;;;9.38;5.47;;;10.80;79.60;;;10.04;62.02;101625.41;5009286;28;20446;-75
2023/01/03 04:26:52;;;;;;;17.55;6.00;;;10.80;79.60;;;10.03;61.66;101629.91;5024611;28;20056;-75
2023/01/03 04:29:20;;;;;;;10.95;6.05;;;10.80;79.20;;;10.01;61.50;101623.94;5007134;28;20146;-76
2023/01/03 04:31:47;;;;;;;14.60;6.40;;;10.80;79.20;;;9.97;61.41;101635.13;5013943;28;20046;-76
2023/01/03 04:34:15;;;;;;;12.18;6.18;;;10.70;79.10;;;9.96;61.51;101630.81;5002884;28;20076;-75
2023/01/03 04:36:42;;;;;;;12.70;5.75;;;10.70;79.20;;;9.93;61.55;101632.00;5021728;28;20052;-75
2023/01/03 04:39:10;;;;;;;13.05;6.18;;;10.70;79.30;;;9.93;61.54;101626.66;5008981;28;20046;-75
2023/01/03 04:41:37;;;;;;;14.15;5.90;;;10.70;79.20;;;9.92;61.34;101621.53;5010081;28;20104;-75
2023/01/03 04:44:03;;;;;;;12.40;5.70;;;10.70;79.00;;;9.88;61.37;101628.22;5011652;28;20041;-75
2023/01/03 04:46:34;;;;;;;10.70;5.82;;;10.70;79.00;;;9.83;61.13;101622.59;5011287;28;20049;-75
2023/01/03 04:49:02;;;;;;;9.77;5.63;;;10.60;78.80;;;9.82;61.15;101624.44;5015671;28;20042;-75
2023/01/03 04:51:29;;;;;;;10.75;6.20;;;10.60;78.60;;;9.81;61.00;101622.78;5008071;28;20061;-76
2023/01/03 04:53:56;;;;;;;11.73;5.53;;;10.60;78.60;;;9.78;60.94;101618.63;5017040;28;20052;-75
2023/01/03 04:56:27;;;;;;;12.35;6.10;;;10.60;78.60;;;9.76;60.92;101631.28;5011026;28;20049;-76
2023/01/03 04:58:54;;;;;;;10.95;5.55;;;10.50;78.40;;;9.75;60.80;101632.28;5012900;28;20076;-75
2023/01/03 05:01:22;;;;;;;10.68;6.43;;;10.50;78.30;;;9.72;60.80;101640.66;5010773;28;20056;-75
2023/01/03 05:03:51;;;;;;;12.35;6.28;;;10.50;78.30;;;9.71;60.69;101635.47;5020876;28;20414;-75
2023/01/03 05:06:18;;;;;;;12.25;6.00;;;10.50;78.30;;;9.67;60.52;101632.34;4994214;28;20603;-75
2023/01/03 05:08:46;;;;;;;11.60;5.65;;;10.40;78.00;;;9.62;60.49;101634.72;5013068;28;20038;-75
2023/01/03 05:11:14;;;;;;;12.40;5.85;;;10.40;78.00;;;9.63;60.48;101640.88;5018588;28;20423;-76
2023/01/03 05:13:43;;;;;;;10.13;6.05;;;10.40;78.00;;;9.61;60.34;101633.03;5010980;28;20049;-75
2023/01/03 05:16:13;;;;;;;11.20;5.80;;;10.40;77.70;;;9.55;60.33;101634.56;5008963;28;20053;-75
2023/01/03 05:18:41;;;;;;;12.32;6.05;;;10.60;77.70;;;9.57;60.47;101633.59;5021175;28;20049;-75
2023/01/03 05:26:42;;;;;;;14.63;6.05;;;10.30;77.40;;;9.50;60.04;101644.09;5002058;28;20443;-75
2023/01/03 05:29:13;;;;;;;10.50;5.50;;;10.30;77.50;;;9.48;60.04;101633.63;5004610;28;20051;-75
2023/01/03 05:31:40;;;;;;;12.10;6.00;;;10.30;77.50;;;9.46;60.11;101635.63;5011735;28;20601;-75
2023/01/03 05:34:07;;;;;;;13.25;5.18;;;10.20;77.40;;;9.43;60.03;101633.31;5017357;28;20045;-75
2023/01/03 05:36:34;;;;;;;13.85;6.20;;;10.20;77.40;;;9.41;59.94;101637.97;5019670;28;20057;-75
2023/01/03 05:39:01;;;;;;;14.02;5.93;;;10.20;77.30;;;9.40;60.02;101638.16;5009642;28;20050;-76
2023/01/03 05:44:15;;;;;;;13.57;5.80;;;10.10;77.80;;;9.39;60.14;101629.34;5013524;28;20422;-76
2023/01/03 05:46:42;;;;;;;13.68;5.70;;;10.10;77.70;;;9.35;60.21;101629.88;5008155;28;20037;-76
2023/01/03 05:49:10;;;;;;;10.48;5.78;;;10.10;77.80;;;9.35;60.08;101632.53;5014497;28;20515;-76
2023/01/03 05:51:37;;;;;;;10.50;5.00;;;10.10;77.80;;;9.34;59.98;101631.72;5019091;28;20769;-75
2023/01/03 05:54:04;;;;;;;13.40;6.00;;;10.10;77.70;;;9.34;60.15;101630.88;5013974;28;20046;-75
2023/01/03 05:56:32;;;;;;;11.15;6.07;;;10.10;77.80;;;9.35;60.24;101632.53;5008517;28;20046;-76
2023/01/03 05:59:00;;;;;;;12.80;6.32;;;10.10;77.80;;;9.32;60.17;101631.06;5013199;28;20056;-76
2023/01/03 06:01:28;;;;;;;11.48;6.20;;;10.10;77.60;;;9.32;60.29;101627.53;5024685;28;20161;-75
2023/01/03 06:03:56;;;;;;;12.55;5.93;;;10.10;77.60;;;9.29;60.29;101629.56;5029205;28;20041;-75
2023/01/03 06:06:23;;;;;;;11.80;6.15;;;10.10;77.60;;;9.29;60.09;101629.56;5011660;28;20049;-76
2023/01/03 06:08:50;;;;;;;11.90;5.85;;;10.10;77.50;;;9.32;60.17;101640.84;5011313;28;20050;-75
2023/01/03 06:11:18;;;;;;;14.48;6.20;;;10.10;77.60;;;9.32;60.03;101635.53;5009626;28;20579;-74
2023/01/03 06:13:45;;;;;;;12.20;5.97;;;10.10;77.60;;;9.31;60.23;101631.22;5015405;28;20033;-75
2023/01/03 06:19:04;;;;;;;12.85;6.00;;;10.00;77.90;;;9.29;60.12;101639.38;5004330;28;20069;-76
2023/01/03 06:21:31;;;;;;;18.27;6.85;;;10.00;77.80;;;9.26;60.52;101629.06;5009698;28;20038;-76
2023/01/03 06:23:58;;;;;;;12.68;6.13;;;10.00;77.80;;;9.25;60.35;101630.09;5010835;28;20069;-75
2023/01/03 06:26:26;;;;;;;12.25;6.30;;;10.00;77.80;;;9.23;60.11;101624.13;5009655;28;20495;-75
2023/01/03 06:28:54;;;;;;;15.43;6.63;;;10.00;77.60;;;9.17;60.20;101630.94;5021203;28;20061;-76
2023/01/03 06:31:21;;;;;;;13.45;6.20;;;9.90;77.80;;;9.16;60.21;101633.78;5012547;28;20057;-76
2023/01/03 06:33:48;;;;;;;13.80;5.97;;;9.90;77.60;;;9.15;60.27;101632.97;5005200;28;20041;-76
2023/01/03 06:36:20;;;;;;;12.68;5.53;;;9.90;77.60;;;9.15;60.21;101622.31;5008850;28;20420;-76
2023/01/03 06:38:47;;;;;;;15.20;6.45;;;9.90;77.60;;;9.16;60.09;101631.13;5016849;28;20465;-76
2023/01/03 06:41:15;;;;;;;10.27;5.70;;;9.90;77.50;;;9.15;59.97;101635.63;5006310;28;20157;-76
2023/01/03 06:43:43;;;;;;;8.85;5.40;;;10.00;77.60;;;9.13;60.10;101640.28;5009613;28;20056;-75
2023/01/03 06:54:32;;;;;;;10.18;5.38;;;9.90;78.00;;;9.16;60.63;101637.28;5040520;28;20045;-75
2023/01/03 06:57:00;;;;;;;10.55;6.03;;;10.00;78.40;;;9.14;61.15;101639.28;5017134;28;20098;-76
2023/01/03 06:59:27;;;;;;;15.65;6.45;;;9.90;78.80;;;9.14;61.11;101644.63;5008329;28;20060;-76
2023/01/03 07:01:55;;;;;;;12.88;6.03;;;9.90;79.10;;;9.15;61.57;101637.47;5021667;28;20499;-76
2023/01/03 07:04:24;;;;;;;12.27;5.80;;;9.90;79.40;;;9.15;61.58;101635.63;5014416;28;20046;-75
2023/01/03 07:06:53;;;;;;;10.43;6.20;;;9.90;79.80;;;9.15;61.92;101632.97;5009936;28;20045;-75
2023/01/03 07:09:20;;;;;;;10.93;6.03;;;9.90;80.00;;;9.16;61.97;101637.28;5019169;28;20053;-76
2023/01/03 07:11:47;;;;;;;11.27;5.70;;;9.90;80.20;;;9.17;62.22;101643.41;5014282;28;20041;-76
2023/01/03 07:14:13;;;;;;;14.20;6.75;;;9.90;80.40;;;9.19;62.39;101644.91;5006350;28;20045;-76
2023/01/03 07:16:43;;;;;;;13.63;6.05;;;9.90;80.60;;;9.17;62.52;101646.09;5014363;28;20133;-76
2023/01/03 07:19:14;;;;;;;15.43;6.97;;;9.90;80.80;;;9.21;62.54;101644.75;5001089;28;20852;-76
2023/01/03 07:21:42;;;;;;;14.52;7.40;;;9.90;80.80;;;9.19;62.81;101646.75;5010198;28;20041;-76
2023/01/03 07:24:14;;;;;;;16.30;7.55;;;9.90;81.10;;;9.21;62.83;101645.56;5026124;28;20056;-76
2023/01/03 07:26:41;;;;;;;12.85;7.03;;;9.90;81.30;;;9.23;62.95;101651.56;5009236;28;20050;-75
2023/01/03 07:29:09;;;;;;;18.25;8.52;;;9.90;81.20;;;9.23;62.99;101648.06;5001526;28;20052;-75
2023/01/03 07:31:40;;;;;;;18.38;8.82;;;9.90;81.30;;;9.26;63.02;101645.03;5013042;28;20046;-75
2023/01/03 07:34:08;;;;;;;17.08;8.77;;;10.00;81.30;;;9.26;62.90;101645.88;5003641;28;20046;-75
2023/01/03 07:36:35;;;;;;;16.92;8.40;;;10.00;81.20;;;9.29;62.80;101645.53;5024165;28;20511;-74
2023/01/03 07:39:02;;;;;;;18.10;7.47;;;10.00;81.00;;;9.26;62.84;101645.88;5027427;28;20045;-74
2023/01/03 07:44:11;;;;;;;16.27;6.07;;;10.00;81.10;;;9.26;62.84;101648.53;5015488;28;20103;-75
2023/01/03 07:46:38;;;;;;;11.30;5.90;;;10.00;81.00;;;9.27;63.13;101650.22;5003656;28;20771;-78
2023/01/03 07:49:06;;;;;;;13.65;6.47;;;10.00;81.00;;;9.31;63.20;101652.50;5010695;28;20053;-75
2023/01/03 07:51:33;;;;;;;12.35;6.53;;;10.00;81.40;;;9.30;63.77;101635.72;5007104;28;20084;-76
2023/01/03 07:54:01;;;;;;;39.70;8.10;;;10.00;82.20;;;9.35;64.43;101640.53;5013468;28;20124;-76
2023/01/03 07:56:30;;;;;;;27.63;9.02;;;10.10;83.10;;;9.39;64.57;101640.00;5006519;28;20512;-75
2023/01/03 07:58:57;;;;;;;28.20;8.10;;;10.10;82.90;;;9.46;64.91;101632.13;5013719;28;20042;-76
2023/01/03 08:01:25;;;;;;;41.33;9.18;;;10.20;83.30;;;9.49;65.09;101632.63;5017328;28;20063;-76
2023/01/03 08:03:52;;;;;;;16.83;8.07;;;10.30;83.70;;;9.50;63.82;101628.13;5019357;28;20466;-78
2023/01/03 08:06:23;;;;;;;19.65;9.07;;;10.30;81.90;;;9.53;63.54;101635.78;5011905;28;20105;-78
2023/01/03 08:14:18;;;;;;;16.05;7.72;;;10.40;81.00;;;9.58;62.92;101643.22;5004374;28;20054;-75
2023/01/03 08:16:45;;;;;;;16.50;8.88;;;10.50;80.80;;;9.61;63.03;101650.84;5005984;28;20060;-75
2023/01/03 08:19:12;;;;;;;10.82;6.78;;;10.50;80.90;;;9.61;63.23;101649.00;5005574;28;20045;-77
2023/01/03 08:21:39;;;;;;;14.57;7.20;;;10.40;81.10;;;9.57;63.19;101650.41;5009855;28;20045;-75
2023/01/03 08:24:07;;;;;;;15.82;6.28;;;10.40;81.00;;;9.59;63.22;101651.03;5019865;28;20046;-76
2023/01/03 08:26:36;;;;;;;12.20;5.85;;;10.50;81.00;;;9.56;62.72;101651.38;5012049;28;20053;-76
2023/01/03 08:29:03;;;;;;;9.75;5.68;;;10.40;80.40;;;9.51;62.92;101649.25;5007345;28;20053;-75
2023/01/03 08:31:34;;;;;;;11.80;4.82;;;10.40;80.60;;;9.58;63.24;101652.06;5010731;28;20052;-75
2023/01/03 08:34:03;;;;;;;8.10;4.32;;;10.50;80.90;;;9.63;63.44;101656.84;5003140;28;20041;-74
2023/01/03 08:36:35;;;;;;;11.27;4.30;;;10.50;81.20;;;9.67;63.25;101659.00;5008327;28;20056;-74
2023/01/03 08:39:06;;;;;;;10.13;4.82;;;10.60;81.10;;;9.68;63.60;101662.47;5016599;28;20049;-75
2023/01/03 08:41:40;;;;;;;12.57;4.65;;;10.50;81.50;;;9.69;63.48;101651.63;5029305;28;20587;-74
2023/01/03 08:44:09;;;;;;;9.05;4.20;;;10.60;81.50;;;9.72;63.48;101661.97;5011697;28;20038;-74
2023/01/03 08:46:39;;;;;;;10.73;4.97;;;10.50;81.40;;;9.68;63.52;101665.16;5010753;28;20042;-74
2023/01/03 08:49:06;;;;;;;9.90;4.43;;;10.60;81.20;;;9.70;63.68;101668.44;5008623;28;20048;-74
2023/01/03 08:51:34;;;;;;;10.27;4.22;;;10.60;81.40;;;9.71;63.98;101675.44;5012511;28;20491;-75
2023/01/03 08:54:01;;;;;;;8.77;4.18;;;10.60;81.90;;;9.69;64.23;101672.94;5003866;28;20129;-75
2023/01/03 08:56:28;;;;;;;7.90;4.30;;;10.50;82.10;;;9.70;64.19;101660.47;5009393;28;20129;-75
2023/01/03 08:58:57;;;;;;;8.32;4.53;;;10.50;82.20;;;9.70;64.16;101663.94;5005116;28;20111;-75
2023/01/03 09:01:24;;;;;;;9.07;4.57;;;10.50;82.20;;;9.67;63.80;101659.00;5014199;28;20057;-75
2023/01/03 09:03:52;;;;;;;7.63;4.03;;;10.50;82.20;;;9.61;63.50;101650.84;5007810;28;20069;-75
2023/01/03 09:06:19;;;;;;;7.63;4.53;;;10.60;81.30;;;9.66;63.74;101646.69;5010108;28;20045;-75
2023/01/03 09:08:46;;;;;;;7.50;4.15;;;10.50;81.70;;;9.62;63.61;101647.22;5007495;28;20424;-75
2023/01/03 09:11:14;;;;;;;9.25;4.10;;;10.50;81.50;;;9.63;63.70;101651.53;5009738;28;20124;-75
2023/01/03 09:13:41;;;;;;;9.05;3.88;;;10.50;81.60;;;9.63;63.75;101663.00;5009714;28;20050;-74
2023/01/03 09:16:12;;;;;;;8.38;3.88;;;10.50;81.50;;;9.68;63.82;101663.31;5002892;28;20050;-75
2023/01/03 09:18:40;;;;;;;10.77;4.38;;;10.50;81.70;;;9.69;64.22;101664.97;5008097;28;20132;-75
2023/01/03 09:21:08;;;;;;;8.90;3.92;;;10.60;82.10;;;9.71;63.61;101664.78;5013938;28;20037;-75
2023/01/03 09:23:37;;;;;;;6.85;3.90;;;10.60;81.50;;;9.72;63.94;101675.28;5011370;28;20053;-75
2023/01/03 09:26:05;;;;;;;9.05;4.18;;;10.60;81.70;;;9.72;63.90;101667.28;5008260;28;20496;-74
2023/01/03 09:28:33;;;;;;;7.55;4.28;;;10.60;81.60;;;9.73;64.05;101676.94;5014756;28;20130;-77
2023/01/03 09:31:00;;;;;;;10.32;3.85;;;10.70;81.70;;;9.73;63.89;101673.44;5011780;28;20045;-74
2023/01/03 09:33:28;;;;;;;9.30;4.03;;;10.60;81.30;;;9.73;63.93;101676.94;5015004;28;20041;-74
2023/01/03 09:35:56;;;;;;;10.30;4.43;;;10.70;81.60;;;9.76;64.14;101675.72;5021452;28;20045;-74
2023/01/03 09:38:24;;;;;;;8.25;4.00;;;10.70;81.90;;;9.75;64.35;101682.91;5023840;28;20053;-74
2023/01/03 09:40:59;;;;;;;9.48;3.72;;;10.70;82.00;;;9.69;63.96;101680.94;5002355;28;20762;-75
2023/01/03 09:43:35;;;;;;;9.80;4.18;;;10.70;81.60;;;9.67;64.14;101680.31;5000394;28;20699;-75
2023/01/03 09:46:04;;;;;;;10.13;3.80;;;10.70;81.60;;;9.63;64.15;101673.66;5012096;28;20511;-75
2023/01/03 09:48:37;;;;;;;9.30;4.15;;;10.60;81.30;;;9.66;64.23;101677.78;5018312;28;20048;-76
2023/01/03 10:03:42;;;;;;;10.68;4.03;;;10.70;81.80;;;9.67;64.18;101672.31;5009786;28;20048;-77
2023/01/03 10:05:42;;;;;;;7.00;3.78;;;10.70;81.80;;;9.62;64.54;101676.50;5005243;28;20535;-77
2023/01/03 10:08:28;;;;;;;8.82;4.30;;;10.60;81.80;;;9.61;64.78;101680.16;5009266;28;20125;-76
2023/01/03 10:11:04;;;;;;;10.00;4.45;;;10.60;82.10;;;9.57;64.94;101685.03;5011411;28;20061;-76
2023/01/03 10:13:53;;;;;;;8.63;3.95;;;10.60;82.10;;;9.63;65.42;101686.97;5009184;28;20088;-76
2023/01/03 10:16:34;;;;;;;9.07;4.35;;;10.60;82.80;;;9.63;65.60;101691.47;5010136;28;20057;-76
2023/01/03 10:19:29;;;;;;;8.65;4.63;;;10.60;82.90;;;9.56;65.28;101691.31;5015294;28;20052;-76
2023/01/03 10:22:09;;;;;;;11.10;4.30;;;10.70;82.60;;;9.60;65.63;101682.00;5011323;28;20046;-77
2023/01/03 10:24:44;;;;;;;6.93;3.70;;;10.60;83.10;;;9.62;65.56;101681.84;4999876;28;20041;-76
2023/01/03 10:27:16;;;;;;;7.88;3.55;;;10.60;82.80;;;9.68;65.60;101681.13;5009592;28;20042;-77
2023/01/03 10:29:45;;;;;;;8.02;3.67;;;10.60;83.10;;;9.74;65.74;101675.09;5008954;28;20096;-76
2023/01/03 10:32:35;;;;;;;7.20;4.10;;;10.70;83.30;;;9.77;65.65;101675.56;5011802;28;20045;-77
2023/01/03 10:35:17;;;;;;;10.95;4.10;;;10.80;83.50;;;9.75;65.66;101682.06;5015451;28;20045;-77
2023/01/03 10:37:46;;;;;;;8.40;3.60;;;10.70;83.20;;;9.72;65.80;101677.94;4998260;28;20138;-77
2023/01/03 10:40:14;;;;;;;9.70;4.10;;;10.80;83.20;;;9.66;65.27;101675.97;5013569;28;20044;-77
2023/01/03 10:42:43;;;;;;;9.25;3.97;;;10.70;82.60;;;9.67;65.41;101672.31;5025047;28;20051;-76
2023/01/03 10:45:14;;;;;;;7.57;3.90;;;10.70;82.90;;;9.68;65.64;101673.13;5005755;28;20477;-77
2023/01/03 10:47:42;;;;;;;8.73;4.25;;;10.70;83.00;;;9.68;65.68;101671.28;5009381;28;20070;-75
2023/01/03 10:50:22;;;;;;;10.88;3.92;;;10.70;83.20;;;9.65;65.37;101671.63;5016384;28;20128;-76
2023/01/03 10:52:59;;;;;;;9.80;4.05;;;10.70;82.80;;;9.71;65.31;101665.63;5008199;28;20589;-77
2023/01/03 10:55:28;;;;;;;7.03;4.32;;;10.70;83.00;;;9.70;65.42;101663.94;5008007;28;20037;-77
2023/01/03 10:58:01;;;;;;;11.70;4.90;;;10.70;83.00;;;9.71;65.58;101670.97;5004588;28;20052;-76
2023/01/03 11:00:32;;;;;;;8.88;4.05;;;10.70;83.10;;;9.67;66.02;101664.31;5021450;28;20041;-76
2023/01/03 11:03:14;;;;;;;8.82;3.60;;;10.70;83.70;;;9.63;65.95;101668.34;5015646;28;20054;-77
2023/01/03 11:05:44;;;;;;;6.93;3.17;;;10.70;83.40;;;9.65;65.89;101666.31;5009964;28;20124;-76
2023/01/03 11:08:21;;;;;;;9.50;4.05;;;10.70;83.40;;;9.64;66.08;101662.00;5019789;28;20581;-77
2023/01/03 11:10:57;;;;;;;8.10;3.60;;;10.60;83.50;;;9.67;65.72;101664.31;5022799;28;20049;-77
2023/01/03 11:13:38;;;;;;;7.72;3.75;;;10.70;83.40;;;9.67;66.09;101664.31;5028896;28;20532;-76
2023/01/03 11:16:17;;;;;;;6.20;3.60;;;10.80;83.60;;;9.70;66.14;101655.97;5006118;28;20810;-77
2023/01/03 11:18:59;;;;;;;6.57;3.60;;;10.70;83.70;;;9.73;66.24;101660.94;4989329;28;20293;-77
2023/01/03 11:21:34;;;;;;;8.75;3.53;;;10.70;83.80;;;9.79;66.33;101662.91;4999005;28;20074;-77
2023/01/03 11:24:23;;;;;;;11.48;4.13;;;10.80;84.00;;;9.84;66.05;101670.34;5016250;28;20131;-77
2023/01/03 11:26:56;;;;;;;8.50;3.75;;;10.80;83.70;;;9.88;66.38;101660.19;5005190;28;20520;-77
2023/01/03 11:29:47;;;;;;;5.93;3.25;;;10.80;84.10;;;9.84;66.12;101657.03;5008620;28;20056;-77
2023/01/03 11:32:32;;;;;;;11.60;3.88;;;10.90;83.60;;;9.85;66.14;101656.03;5007492;28;20050;-77
2023/01/03 11:35:44;;;;;;;7.32;3.80;;;10.90;83.70;;;9.87;66.28;101661.19;5003493;28;20096;-77